Get Adobe Flash player

РУС

ENG

 
  Pireps - S7
 

Рейс SBIS7 39

  • Выполнял: Georgiy Danelia
  • Аэропорт отправления: Domodedovo Airport (UUDD)
  • Аэропорт назначения: Pulkovo Airport (ULLI)
  • Тип ВС: A319-112 (VP-BHL)
  • Время полёта: 00.22
  • Дата полёта: 19.05.2016
  • Маршрут: WT NE1D NE W30 LUKIR
  • Статус: Отклонен

Детали полёта
Gross Revenue:
(105 load / $ 260.00 per unit
$ 27,300.00
Fuel Cost:
(-4311 fuel used @ 5.1 / unit)
($ -21,986.10)


Дополнительная информация о полёте:

Лог

Aircraft Used in flight is Cessna Skyhawk 172SP
00:28 Boarding
00:28 Engine 1 Started
00:28 Brakes are On
00:29 In Air Refuel Suspected
00:29 Engine 2 Started
00:29 Strobe Lights ON at 600 AGL
00:29 Brakes are Released
00:29 Pushing back
00:29Flaps 1 Selected at 600ft and 0kts
00:29Flaps 2 Selected at 600ft and 0kts
00:35 Brakes are On
00:35 Brakes are Released
00:38 Landing Lights ON at 600 AGL
00:38 Spoilers Armed
00:39 You Took off @ 152 Knots and Flaps at Position 2
Departure Weather
UUDD 182100Z 15003MPS 9999 BKN016 13/12 Q1013 R14R/010095 R14L/190095 NOSIGrn
00:39 You are Airborne and your Beacons are off
00:39 You are Airborne and your Navigation Lights are off
00:39 Landing Gear Up @ 161 Knots and 610 Feet
00:40 Landing Lights OFF at 2620 AGL
00:40Flaps Retracted at 4240ft and 177kts
00:44Flaps 1 Selected at 2990ft and 244kts
00:44Flaps Retracted at 2990ft and 243kts
00:45Flaps 1 Selected at 2980ft and 229kts
00:45 Landing Gear Down @ 223 Knots and 2980 Feet
00:46Flaps 3 Selected at 2960ft and 197kts
00:47Flaps 4 Selected at 2100ft and 150kts
00:47Flaps 5 Selected at 2050ft and 148kts
00:49 You Landed @ 135 Knots and with -150 Vertical Speed
Arrival Weather
ULLI 182100Z 00000MPS CAVOK 14/06 Q1010 R10R/090060 NOSIGrn
00:49 Spoilers Disarmed
00:49 Landing Lights ON at 690 AGL
00:50 Taxiing to gate
00:50 Brakes are On
00:50 Engine 1 Stoped
00:50 Engine 2 Stoped
Pirep logged with S7 Tracking 1.0.0.10



Общая оценка полета : 100%




Комментарии
Georgiy Danelia Тестовый полет.

Route Map



 
 
   
 
Новости

26.04.2018 - Полеты в X-PLANE

Наш клиент S7 Pad поддерживает полеты как в MFSX, Prepar3d V4, так и в X-PLANE 10 и 11 версиях!
На нашем сайте в разреде загруки есть плагин XPUIPIC for X-plane.
Приятных Вам полетов и мягких посадок!

   
 
Авторизация






Регистрация

Восстановить пароль?

Мы в соц. сетях

      



   
  TeamSpeak3 ts.va-s7.ru


   
 

   
 



   
 


Яндекс.Метрика

www.va-s7.ru 2011-2017
Все права защищены.



Минуточку внимания!
Мы не имеем отношения к торговым маркам "S7" и "Globus" и их представителям.
Эмблемы на сайте являются собственностью соответствующих компаний.

аэронавигационная метеорологическая и любая другая информация с данного ресурса ни в коем случае не должна использоваться для реальных полетов